sensor_id;sensor_type;location;lat;lon;timestamp;P1;durP1;ratioP1;P2;durP2;ratioP2
20751;SDS011;10536;51.582;5.016;2022-08-01T00:02:43;32.87;;;18.60;;
20751;SDS011;10536;51.582;5.016;2022-08-01T00:07:43;48.73;;;22.10;;
20751;SDS011;10536;51.582;5.016;2022-08-01T00:12:44;45.80;;;22.40;;
20751;SDS011;10536;51.582;5.016;2022-08-01T00:17:45;46.55;;;21.17;;
20751;SDS011;10536;51.582;5.016;2022-08-01T00:22:45;45.42;;;21.42;;
20751;SDS011;10536;51.582;5.016;2022-08-01T00:27:46;55.13;;;22.23;;
20751;SDS011;10536;51.582;5.016;2022-08-01T00:32:46;45.28;;;21.80;;
20751;SDS011;10536;51.582;5.016;2022-08-01T00:37:47;40.45;;;21.35;;
20751;SDS011;10536;51.582;5.016;2022-08-01T00:42:47;39.17;;;20.10;;
20751;SDS011;10536;51.582;5.016;2022-08-01T00:47:48;43.10;;;22.10;;
20751;SDS011;10536;51.582;5.016;2022-08-01T00:52:48;30.77;;;17.97;;
20751;SDS011;10536;51.582;5.016;2022-08-01T00:57:49;33.00;;;19.50;;
20751;SDS011;10536;51.582;5.016;2022-08-01T01:02:50;32.30;;;18.50;;
20751;SDS011;10536;51.582;5.016;2022-08-01T01:07:56;32.35;;;17.13;;
20751;SDS011;10536;51.582;5.016;2022-08-01T01:13:05;30.38;;;17.70;;
20751;SDS011;10536;51.582;5.016;2022-08-01T01:34:03;30.80;;;17.35;;
20751;SDS011;10536;51.582;5.016;2022-08-01T01:39:05;25.73;;;17.38;;
20751;SDS011;10536;51.582;5.016;2022-08-01T01:44:07;33.90;;;18.85;;
20751;SDS011;10536;51.582;5.016;2022-08-01T01:49:09;30.80;;;19.50;;
20751;SDS011;10536;51.582;5.016;2022-08-01T01:54:11;34.58;;;20.38;;
20751;SDS011;10536;51.582;5.016;2022-08-01T01:59:11;36.25;;;21.00;;
20751;SDS011;10536;51.582;5.016;2022-08-01T02:04:12;41.13;;;19.90;;
20751;SDS011;10536;51.582;5.016;2022-08-01T02:09:15;37.30;;;20.17;;
20751;SDS011;10536;51.582;5.016;2022-08-01T02:14:18;29.02;;;17.92;;
20751;SDS011;10536;51.582;5.016;2022-08-01T02:19:20;30.50;;;17.08;;
20751;SDS011;10536;51.582;5.016;2022-08-01T02:24:24;31.67;;;17.67;;
20751;SDS011;10536;51.582;5.016;2022-08-01T02:29:42;31.88;;;18.58;;
20751;SDS011;10536;51.582;5.016;2022-08-01T02:34:46;27.75;;;17.33;;
20751;SDS011;10536;51.582;5.016;2022-08-01T02:39:51;35.20;;;18.27;;
20751;SDS011;10536;51.582;5.016;2022-08-01T02:44:54;35.28;;;19.83;;
20751;SDS011;10536;51.582;5.016;2022-08-01T02:49:55;33.60;;;19.42;;
20751;SDS011;10536;51.582;5.016;2022-08-01T02:54:55;45.08;;;21.50;;
20751;SDS011;10536;51.582;5.016;2022-08-01T02:59:57;38.90;;;20.27;;
20751;SDS011;10536;51.582;5.016;2022-08-01T03:04:59;38.25;;;20.88;;
20751;SDS011;10536;51.582;5.016;2022-08-01T03:10:00;36.53;;;20.48;;
20751;SDS011;10536;51.582;5.016;2022-08-01T03:15:02;41.20;;;21.42;;
20751;SDS011;10536;51.582;5.016;2022-08-01T03:20:05;42.78;;;21.75;;
20751;SDS011;10536;51.582;5.016;2022-08-01T03:25:08;39.17;;;20.00;;
20751;SDS011;10536;51.582;5.016;2022-08-01T03:30:12;39.50;;;21.63;;
20751;SDS011;10536;51.582;5.016;2022-08-01T03:35:13;46.42;;;23.35;;
20751;SDS011;10536;51.582;5.016;2022-08-01T03:40:17;39.72;;;21.73;;
20751;SDS011;10536;51.582;5.016;2022-08-01T03:45:20;44.72;;;21.48;;
20751;SDS011;10536;51.582;5.016;2022-08-01T03:50:22;40.88;;;21.73;;
20751;SDS011;10536;51.582;5.016;2022-08-01T03:55:25;44.45;;;21.58;;
20751;SDS011;10536;51.582;5.016;2022-08-01T04:00:26;42.45;;;21.60;;
20751;SDS011;10536;51.582;5.016;2022-08-01T04:05:27;42.10;;;20.65;;
20751;SDS011;10536;51.582;5.016;2022-08-01T04:10:28;45.30;;;21.60;;
20751;SDS011;10536;51.582;5.016;2022-08-01T04:15:29;44.25;;;22.30;;
20751;SDS011;10536;51.582;5.016;2022-08-01T04:20:29;39.53;;;20.83;;
20751;SDS011;10536;51.582;5.016;2022-08-01T04:25:32;48.50;;;21.40;;
20751;SDS011;10536;51.582;5.016;2022-08-01T04:30:35;48.00;;;22.20;;
20751;SDS011;10536;51.582;5.016;2022-08-01T04:35:38;43.33;;;21.50;;
20751;SDS011;10536;51.582;5.016;2022-08-01T04:40:41;52.33;;;23.33;;
20751;SDS011;10536;51.582;5.016;2022-08-01T04:45:43;40.17;;;21.08;;
20751;SDS011;10536;51.582;5.016;2022-08-01T04:50:45;43.13;;;21.63;;
20751;SDS011;10536;51.582;5.016;2022-08-01T04:55:45;43.50;;;21.25;;
20751;SDS011;10536;51.582;5.016;2022-08-01T05:00:46;44.58;;;20.88;;
20751;SDS011;10536;51.582;5.016;2022-08-01T05:05:46;38.97;;;20.05;;
20751;SDS011;10536;51.582;5.016;2022-08-01T05:10:47;35.20;;;16.43;;
20751;SDS011;10536;51.582;5.016;2022-08-01T05:15:47;29.08;;;16.23;;
20751;SDS011;10536;51.582;5.016;2022-08-01T05:20:48;31.60;;;17.33;;
20751;SDS011;10536;51.582;5.016;2022-08-01T05:25:48;39.08;;;18.58;;
20751;SDS011;10536;51.582;5.016;2022-08-01T05:30:49;40.60;;;18.88;;
20751;SDS011;10536;51.582;5.016;2022-08-01T05:35:50;37.33;;;18.35;;
20751;SDS011;10536;51.582;5.016;2022-08-01T05:40:50;30.95;;;16.33;;
20751;SDS011;10536;51.582;5.016;2022-08-01T05:45:51;28.77;;;15.77;;
20751;SDS011;10536;51.582;5.016;2022-08-01T05:50:51;18.08;;;11.98;;
20751;SDS011;10536;51.582;5.016;2022-08-01T05:55:53;14.77;;;9.55;;
20751;SDS011;10536;51.582;5.016;2022-08-01T06:00:53;15.80;;;9.70;;
20751;SDS011;10536;51.582;5.016;2022-08-01T06:05:54;11.45;;;9.05;;
20751;SDS011;10536;51.582;5.016;2022-08-01T06:10:54;11.07;;;8.53;;
20751;SDS011;10536;51.582;5.016;2022-08-01T06:15:55;9.68;;;7.13;;
20751;SDS011;10536;51.582;5.016;2022-08-01T06:20:55;8.93;;;6.37;;
20751;SDS011;10536;51.582;5.016;2022-08-01T06:25:56;5.47;;;5.07;;
20751;SDS011;10536;51.582;5.016;2022-08-01T06:30:58;4.65;;;4.25;;
20751;SDS011;10536;51.582;5.016;2022-08-01T06:35:59;8.18;;;4.10;;
20751;SDS011;10536;51.582;5.016;2022-08-01T06:41:00;4.45;;;3.80;;
20751;SDS011;10536;51.582;5.016;2022-08-01T06:46:00;6.70;;;3.92;;
20751;SDS011;10536;51.582;5.016;2022-08-01T06:51:01;3.40;;;2.40;;
20751;SDS011;10536;51.582;5.016;2022-08-01T06:56:13;2.67;;;2.38;;
20751;SDS011;10536;51.582;5.016;2022-08-01T07:01:14;2.37;;;2.13;;
20751;SDS011;10536;51.582;5.016;2022-08-01T07:06:14;2.70;;;1.83;;
20751;SDS011;10536;51.582;5.016;2022-08-01T07:11:15;1.83;;;1.73;;
20751;SDS011;10536;51.582;5.016;2022-08-01T07:16:15;1.05;;;1.02;;
20751;SDS011;10536;51.582;5.016;2022-08-01T07:21:17;2.05;;;1.27;;
20751;SDS011;10536;51.582;5.016;2022-08-01T07:26:17;2.08;;;1.40;;
20751;SDS011;10536;51.582;5.016;2022-08-01T07:31:18;6.10;;;1.50;;
20751;SDS011;10536;51.582;5.016;2022-08-01T07:36:19;1.85;;;1.45;;
20751;SDS011;10536;51.582;5.016;2022-08-01T07:41:20;1.52;;;1.42;;
20751;SDS011;10536;51.582;5.016;2022-08-01T07:46:20;1.88;;;1.83;;
20751;SDS011;10536;51.582;5.016;2022-08-01T07:51:21;1.67;;;1.57;;
20751;SDS011;10536;51.582;5.016;2022-08-01T07:56:21;1.90;;;1.25;;
20751;SDS011;10536;51.582;5.016;2022-08-01T08:01:23;4.25;;;1.40;;
20751;SDS011;10536;51.582;5.016;2022-08-01T08:06:24;1.50;;;1.40;;
20751;SDS011;10536;51.582;5.016;2022-08-01T08:11:24;1.07;;;1.07;;
20751;SDS011;10536;51.582;5.016;2022-08-01T08:16:25;2.87;;;1.13;;
20751;SDS011;10536;51.582;5.016;2022-08-01T08:21:26;1.20;;;1.10;;
20751;SDS011;10536;51.582;5.016;2022-08-01T08:26:28;1.10;;;1.10;;
20751;SDS011;10536;51.582;5.016;2022-08-01T08:31:28;1.08;;;0.80;;
20751;SDS011;10536;51.582;5.016;2022-08-01T08:36:29;0.70;;;0.57;;
20751;SDS011;10536;51.582;5.016;2022-08-01T08:41:30;0.87;;;0.40;;
20751;SDS011;10536;51.582;5.016;2022-08-01T08:46:31;2.05;;;0.60;;
20751;SDS011;10536;51.582;5.016;2022-08-01T08:51:33;3.72;;;0.90;;
20751;SDS011;10536;51.582;5.016;2022-08-01T08:56:37;2.05;;;0.98;;
20751;SDS011;10536;51.582;5.016;2022-08-01T09:01:38;1.80;;;0.70;;
20751;SDS011;10536;51.582;5.016;2022-08-01T09:06:39;0.93;;;0.50;;
20751;SDS011;10536;51.582;5.016;2022-08-01T09:11:40;1.08;;;0.90;;
20751;SDS011;10536;51.582;5.016;2022-08-01T09:16:42;0.85;;;0.60;;
20751;SDS011;10536;51.582;5.016;2022-08-01T09:21:59;2.50;;;0.70;;
20751;SDS011;10536;51.582;5.016;2022-08-01T09:27:01;1.95;;;1.77;;
20751;SDS011;10536;51.582;5.016;2022-08-01T09:32:16;3.63;;;1.90;;
20751;SDS011;10536;51.582;5.016;2022-08-01T09:37:17;2.08;;;1.90;;
20751;SDS011;10536;51.582;5.016;2022-08-01T09:42:30;2.17;;;1.50;;
20751;SDS011;10536;51.582;5.016;2022-08-01T09:47:40;4.97;;;1.70;;
20751;SDS011;10536;51.582;5.016;2022-08-01T09:52:40;3.03;;;1.60;;
20751;SDS011;10536;51.582;5.016;2022-08-01T09:57:41;4.73;;;1.10;;
20751;SDS011;10536;51.582;5.016;2022-08-01T10:07:56;6.00;;;1.40;;
20751;SDS011;10536;51.582;5.016;2022-08-01T10:12:58;2.63;;;1.00;;
20751;SDS011;10536;51.582;5.016;2022-08-01T10:18:00;2.15;;;1.77;;
20751;SDS011;10536;51.582;5.016;2022-08-01T10:23:03;2.05;;;1.27;;
20751;SDS011;10536;51.582;5.016;2022-08-01T10:28:06;5.00;;;1.48;;
20751;SDS011;10536;51.582;5.016;2022-08-01T10:33:23;4.75;;;1.95;;
20751;SDS011;10536;51.582;5.016;2022-08-01T10:38:24;3.92;;;1.70;;
20751;SDS011;10536;51.582;5.016;2022-08-01T10:43:27;2.67;;;1.75;;
20751;SDS011;10536;51.582;5.016;2022-08-01T10:53:53;3.17;;;1.20;;
20751;SDS011;10536;51.582;5.016;2022-08-01T10:59:01;3.85;;;1.20;;
20751;SDS011;10536;51.582;5.016;2022-08-01T11:04:05;4.45;;;1.85;;
20751;SDS011;10536;51.582;5.016;2022-08-01T11:09:23;3.72;;;1.67;;
20751;SDS011;10536;51.582;5.016;2022-08-01T11:14:26;3.67;;;1.70;;
20751;SDS011;10536;51.582;5.016;2022-08-01T11:19:26;4.15;;;1.40;;
20751;SDS011;10536;51.582;5.016;2022-08-01T11:25:06;4.20;;;1.90;;
20751;SDS011;10536;51.582;5.016;2022-08-01T11:35:11;4.07;;;1.80;;
20751;SDS011;10536;51.582;5.016;2022-08-01T11:45:45;3.13;;;1.60;;
20751;SDS011;10536;51.582;5.016;2022-08-01T11:50:56;5.53;;;1.88;;
20751;SDS011;10536;51.582;5.016;2022-08-01T11:55:57;2.65;;;1.23;;
20751;SDS011;10536;51.582;5.016;2022-08-01T12:00:58;3.17;;;1.20;;
20751;SDS011;10536;51.582;5.016;2022-08-01T12:05:59;2.10;;;1.60;;
20751;SDS011;10536;51.582;5.016;2022-08-01T12:11:03;5.27;;;1.67;;
20751;SDS011;10536;51.582;5.016;2022-08-01T12:16:08;4.85;;;1.92;;
20751;SDS011;10536;51.582;5.016;2022-08-01T12:21:09;3.50;;;1.80;;
20751;SDS011;10536;51.582;5.016;2022-08-01T12:26:10;6.63;;;1.55;;
20751;SDS011;10536;51.582;5.016;2022-08-01T12:31:11;3.63;;;1.75;;
20751;SDS011;10536;51.582;5.016;2022-08-01T12:36:11;5.30;;;2.05;;
20751;SDS011;10536;51.582;5.016;2022-08-01T12:41:12;4.75;;;2.00;;
20751;SDS011;10536;51.582;5.016;2022-08-01T12:46:12;3.05;;;1.13;;
20751;SDS011;10536;51.582;5.016;2022-08-01T12:51:17;2.10;;;1.10;;
20751;SDS011;10536;51.582;5.016;2022-08-01T12:56:17;5.13;;;1.40;;
20751;SDS011;10536;51.582;5.016;2022-08-01T13:01:32;9.55;;;1.67;;
20751;SDS011;10536;51.582;5.016;2022-08-01T13:06:32;3.88;;;1.20;;
20751;SDS011;10536;51.582;5.016;2022-08-01T13:11:35;4.17;;;1.33;;
20751;SDS011;10536;51.582;5.016;2022-08-01T13:16:45;5.80;;;1.67;;
20751;SDS011;10536;51.582;5.016;2022-08-01T13:21:56;4.18;;;1.52;;
20751;SDS011;10536;51.582;5.016;2022-08-01T13:27:01;3.45;;;1.30;;
20751;SDS011;10536;51.582;5.016;2022-08-01T13:32:19;5.88;;;1.92;;
20751;SDS011;10536;51.582;5.016;2022-08-01T13:37:21;3.55;;;1.50;;
20751;SDS011;10536;51.582;5.016;2022-08-01T13:42:21;8.30;;;1.50;;
20751;SDS011;10536;51.582;5.016;2022-08-01T13:47:22;4.25;;;1.45;;
20751;SDS011;10536;51.582;5.016;2022-08-01T13:52:25;4.43;;;1.35;;
20751;SDS011;10536;51.582;5.016;2022-08-01T13:57:26;9.20;;;1.63;;
20751;SDS011;10536;51.582;5.016;2022-08-01T14:02:27;4.22;;;1.50;;
20751;SDS011;10536;51.582;5.016;2022-08-01T14:07:28;4.90;;;2.17;;
20751;SDS011;10536;51.582;5.016;2022-08-01T14:12:28;6.50;;;1.88;;
20751;SDS011;10536;51.582;5.016;2022-08-01T14:17:29;5.10;;;1.00;;
20751;SDS011;10536;51.582;5.016;2022-08-01T14:22:29;5.93;;;1.40;;
20751;SDS011;10536;51.582;5.016;2022-08-01T14:27:30;3.43;;;1.20;;
20751;SDS011;10536;51.582;5.016;2022-08-01T14:32:30;4.50;;;1.60;;
20751;SDS011;10536;51.582;5.016;2022-08-01T14:37:33;5.45;;;1.55;;
20751;SDS011;10536;51.582;5.016;2022-08-01T14:42:33;6.63;;;1.77;;
20751;SDS011;10536;51.582;5.016;2022-08-01T14:47:34;5.27;;;1.73;;
20751;SDS011;10536;51.582;5.016;2022-08-01T14:52:36;4.60;;;1.38;;
20751;SDS011;10536;51.582;5.016;2022-08-01T14:57:38;4.47;;;1.40;;
20751;SDS011;10536;51.582;5.016;2022-08-01T15:02:39;6.20;;;1.40;;
20751;SDS011;10536;51.582;5.016;2022-08-01T15:07:40;3.90;;;1.40;;
20751;SDS011;10536;51.582;5.016;2022-08-01T15:12:41;8.25;;;1.48;;
20751;SDS011;10536;51.582;5.016;2022-08-01T15:17:43;7.70;;;1.67;;
20751;SDS011;10536;51.582;5.016;2022-08-01T15:22:45;8.07;;;1.58;;
20751;SDS011;10536;51.582;5.016;2022-08-01T15:27:45;5.27;;;1.53;;
20751;SDS011;10536;51.582;5.016;2022-08-01T15:32:45;4.53;;;1.60;;
20751;SDS011;10536;51.582;5.016;2022-08-01T15:37:46;5.57;;;2.13;;
20751;SDS011;10536;51.582;5.016;2022-08-01T15:42:46;4.43;;;1.48;;
20751;SDS011;10536;51.582;5.016;2022-08-01T15:47:47;2.28;;;1.35;;
20751;SDS011;10536;51.582;5.016;2022-08-01T15:52:47;5.83;;;1.63;;
20751;SDS011;10536;51.582;5.016;2022-08-01T15:57:48;6.47;;;1.52;;
20751;SDS011;10536;51.582;5.016;2022-08-01T16:02:48;2.73;;;1.47;;
20751;SDS011;10536;51.582;5.016;2022-08-01T16:07:49;4.83;;;1.20;;
20751;SDS011;10536;51.582;5.016;2022-08-01T16:12:49;2.67;;;1.42;;
20751;SDS011;10536;51.582;5.016;2022-08-01T16:17:50;4.73;;;1.23;;
20751;SDS011;10536;51.582;5.016;2022-08-01T16:22:51;6.68;;;1.00;;
20751;SDS011;10536;51.582;5.016;2022-08-01T16:27:52;3.08;;;1.00;;
20751;SDS011;10536;51.582;5.016;2022-08-01T16:32:52;2.42;;;1.10;;
20751;SDS011;10536;51.582;5.016;2022-08-01T16:37:53;4.80;;;1.17;;
20751;SDS011;10536;51.582;5.016;2022-08-01T16:42:53;3.30;;;0.98;;
20751;SDS011;10536;51.582;5.016;2022-08-01T16:47:54;1.60;;;0.90;;
20751;SDS011;10536;51.582;5.016;2022-08-01T16:52:55;3.03;;;1.10;;
20751;SDS011;10536;51.582;5.016;2022-08-01T16:57:56;7.90;;;1.50;;
20751;SDS011;10536;51.582;5.016;2022-08-01T17:02:56;2.05;;;0.90;;
20751;SDS011;10536;51.582;5.016;2022-08-01T17:07:57;2.53;;;1.03;;
20751;SDS011;10536;51.582;5.016;2022-08-01T17:12:57;2.75;;;1.00;;
20751;SDS011;10536;51.582;5.016;2022-08-01T17:17:58;2.37;;;0.97;;
20751;SDS011;10536;51.582;5.016;2022-08-01T17:22:59;1.75;;;1.00;;
20751;SDS011;10536;51.582;5.016;2022-08-01T17:27:59;2.80;;;0.73;;
20751;SDS011;10536;51.582;5.016;2022-08-01T17:32:59;1.03;;;0.80;;
20751;SDS011;10536;51.582;5.016;2022-08-01T17:38:01;3.72;;;0.98;;
20751;SDS011;10536;51.582;5.016;2022-08-01T17:43:01;2.77;;;0.87;;
20751;SDS011;10536;51.582;5.016;2022-08-01T17:48:01;1.40;;;0.80;;
20751;SDS011;10536;51.582;5.016;2022-08-01T17:53:02;2.85;;;1.08;;
20751;SDS011;10536;51.582;5.016;2022-08-01T17:58:03;2.05;;;1.00;;
20751;SDS011;10536;51.582;5.016;2022-08-01T18:03:04;2.40;;;1.05;;
20751;SDS011;10536;51.582;5.016;2022-08-01T18:08:06;1.63;;;0.80;;
20751;SDS011;10536;51.582;5.016;2022-08-01T18:13:07;8.20;;;0.90;;
20751;SDS011;10536;51.582;5.016;2022-08-01T18:18:09;1.85;;;0.95;;
20751;SDS011;10536;51.582;5.016;2022-08-01T18:23:15;4.85;;;0.90;;
20751;SDS011;10536;51.582;5.016;2022-08-01T18:28:16;1.30;;;0.93;;
20751;SDS011;10536;51.582;5.016;2022-08-01T18:33:16;1.63;;;0.90;;
20751;SDS011;10536;51.582;5.016;2022-08-01T18:38:16;1.80;;;0.90;;
20751;SDS011;10536;51.582;5.016;2022-08-01T18:43:17;2.78;;;0.80;;
20751;SDS011;10536;51.582;5.016;2022-08-01T18:48:17;2.00;;;0.87;;
20751;SDS011;10536;51.582;5.016;2022-08-01T18:53:19;5.85;;;1.10;;
20751;SDS011;10536;51.582;5.016;2022-08-01T18:58:20;4.03;;;1.00;;
20751;SDS011;10536;51.582;5.016;2022-08-01T19:03:21;3.63;;;1.10;;
20751;SDS011;10536;51.582;5.016;2022-08-01T19:08:21;1.50;;;1.17;;
20751;SDS011;10536;51.582;5.016;2022-08-01T19:13:22;3.25;;;0.77;;
20751;SDS011;10536;51.582;5.016;2022-08-01T19:18:25;5.20;;;1.17;;
20751;SDS011;10536;51.582;5.016;2022-08-01T19:23:26;1.50;;;0.75;;
20751;SDS011;10536;51.582;5.016;2022-08-01T19:28:46;8.65;;;1.20;;
20751;SDS011;10536;51.582;5.016;2022-08-01T19:33:51;3.03;;;0.98;;
20751;SDS011;10536;51.582;5.016;2022-08-01T19:38:52;6.75;;;1.60;;
20751;SDS011;10536;51.582;5.016;2022-08-01T19:43:54;3.67;;;1.92;;
20751;SDS011;10536;51.582;5.016;2022-08-01T19:48:56;1.38;;;1.20;;
20751;SDS011;10536;51.582;5.016;2022-08-01T19:53:58;2.05;;;1.65;;
20751;SDS011;10536;51.582;5.016;2022-08-01T19:59:03;6.65;;;2.13;;
20751;SDS011;10536;51.582;5.016;2022-08-01T20:04:07;2.57;;;1.43;;
20751;SDS011;10536;51.582;5.016;2022-08-01T20:09:07;1.85;;;1.30;;
20751;SDS011;10536;51.582;5.016;2022-08-01T20:14:09;4.00;;;1.20;;
20751;SDS011;10536;51.582;5.016;2022-08-01T20:19:16;15.70;;;2.03;;
20751;SDS011;10536;51.582;5.016;2022-08-01T20:24:17;4.15;;;1.60;;
20751;SDS011;10536;51.582;5.016;2022-08-01T20:29:18;2.17;;;1.45;;
20751;SDS011;10536;51.582;5.016;2022-08-01T20:34:23;2.03;;;1.38;;
20751;SDS011;10536;51.582;5.016;2022-08-01T20:39:24;2.28;;;1.27;;
20751;SDS011;10536;51.582;5.016;2022-08-01T20:44:25;2.42;;;0.85;;
20751;SDS011;10536;51.582;5.016;2022-08-01T20:49:26;6.65;;;1.30;;
20751;SDS011;10536;51.582;5.016;2022-08-01T20:54:29;1.70;;;1.20;;
20751;SDS011;10536;51.582;5.016;2022-08-01T20:59:36;5.78;;;1.15;;
20751;SDS011;10536;51.582;5.016;2022-08-01T21:04:41;2.35;;;1.20;;
20751;SDS011;10536;51.582;5.016;2022-08-01T21:09:45;1.75;;;1.42;;
20751;SDS011;10536;51.582;5.016;2022-08-01T21:14:54;4.65;;;1.63;;
20751;SDS011;10536;51.582;5.016;2022-08-01T21:19:56;3.30;;;1.75;;
20751;SDS011;10536;51.582;5.016;2022-08-01T21:25:05;6.07;;;1.70;;
20751;SDS011;10536;51.582;5.016;2022-08-01T21:30:09;2.22;;;1.65;;
20751;SDS011;10536;51.582;5.016;2022-08-01T21:35:10;4.75;;;1.67;;
20751;SDS011;10536;51.582;5.016;2022-08-01T21:40:12;2.00;;;1.55;;
20751;SDS011;10536;51.582;5.016;2022-08-01T21:45:12;4.07;;;1.67;;
20751;SDS011;10536;51.582;5.016;2022-08-01T21:50:13;2.72;;;1.75;;
20751;SDS011;10536;51.582;5.016;2022-08-01T21:55:23;4.45;;;1.60;;
20751;SDS011;10536;51.582;5.016;2022-08-01T22:00:27;2.03;;;1.35;;
20751;SDS011;10536;51.582;5.016;2022-08-01T22:05:28;5.40;;;1.58;;
20751;SDS011;10536;51.582;5.016;2022-08-01T22:10:32;3.28;;;1.45;;
20751;SDS011;10536;51.582;5.016;2022-08-01T22:15:36;3.53;;;1.80;;
20751;SDS011;10536;51.582;5.016;2022-08-01T22:20:37;3.08;;;1.27;;
20751;SDS011;10536;51.582;5.016;2022-08-01T22:25:38;5.13;;;1.35;;
20751;SDS011;10536;51.582;5.016;2022-08-01T22:30:39;2.65;;;1.20;;
20751;SDS011;10536;51.582;5.016;2022-08-01T22:35:41;3.60;;;1.20;;
20751;SDS011;10536;51.582;5.016;2022-08-01T22:40:49;3.55;;;0.90;;
20751;SDS011;10536;51.582;5.016;2022-08-01T22:45:59;5.47;;;1.35;;
20751;SDS011;10536;51.582;5.016;2022-08-01T22:51:08;3.78;;;1.40;;
20751;SDS011;10536;51.582;5.016;2022-08-01T22:56:20;2.92;;;1.55;;
20751;SDS011;10536;51.582;5.016;2022-08-01T23:01:21;4.13;;;1.48;;
20751;SDS011;10536;51.582;5.016;2022-08-01T23:06:34;2.65;;;1.50;;
20751;SDS011;10536;51.582;5.016;2022-08-01T23:11:40;6.10;;;1.70;;
20751;SDS011;10536;51.582;5.016;2022-08-01T23:16:40;4.80;;;1.70;;
20751;SDS011;10536;51.582;5.016;2022-08-01T23:21:42;5.43;;;1.55;;
20751;SDS011;10536;51.582;5.016;2022-08-01T23:26:44;8.60;;;1.60;;
20751;SDS011;10536;51.582;5.016;2022-08-01T23:31:46;3.95;;;1.50;;
20751;SDS011;10536;51.582;5.016;2022-08-01T23:36:47;7.70;;;1.42;;
20751;SDS011;10536;51.582;5.016;2022-08-01T23:41:47;4.13;;;1.20;;
20751;SDS011;10536;51.582;5.016;2022-08-01T23:46:48;3.10;;;1.40;;
20751;SDS011;10536;51.582;5.016;2022-08-01T23:51:48;5.32;;;1.30;;
20751;SDS011;10536;51.582;5.016;2022-08-01T23:56:49;6.85;;;1.30;;
